Bretagne — FNBR — position and weather

sailwx.info

Track history (hours):
 
Tides and Currents Weather Stations Pressure Air Temp Water Temp Dewpoint Dewpoint Depression Visibility Wind Speed Wind Dir Waves Ship Positions

Bretagne

Operator: Brittany Ferries

Last reported at 2018-Oct-20 13:03 UTC. Time now 2018-Oct-20 13:21 UTC.
Position N 49°53' W 001°54'.

Length 151 m; beam 27 m.

Type: Ship. MMSI: 227286000.

Date/timePositionNaut miles runAvg speedWind from/ knotsBaromVisibWave heightAir tempDewpointWater temp
2018-Oct-20 13:03N 49°53' W 001°54'118.8
2018-Oct-20 13:00N 49°52' W 001°54'918.5
2018-Oct-20 12:31N 49°44' W 002°01'817.5
2018-Oct-20 12:03N 49°37' W 002°08'118.0
2018-Oct-20 12:01N 49°36' W 002°08'918.2
2018-Oct-20 11:30N 49°28' W 002°14'818.2
2018-Oct-20 11:03N 49°21' W 002°19'118.4
2018-Oct-20 11:00N 49°20' W 002°19'918.2
2018-Oct-20 10:30N 49°11' W 002°21'818.9
2018-Oct-20 10:03N 49°02' W 002°22'119.1
2018-Oct-20 10:00N 49°01' W 002°22'919.0
2018-Oct-20 09:30N 48°52' W 002°18'919.8
2018-Oct-20 09:03N 48°45' W 002°10'119.8
2018-Oct-20 09:00N 48°44' W 002°09'8 6.6
2018-Oct-20 07:52N 48°38' W 002°02'0 0.0
2018-Oct-20 06:58N 48°38' W 002°02'0 0.1
2018-Oct-20 06:04N 48°38' W 002°02'0 0.5
2018-Oct-20 06:01N 48°38' W 002°02'1 8.8
2018-Oct-20 05:52N 48°39' W 002°03'617.6
2018-Oct-20 05:30N 48°45' W 002°08'715.4
2018-Oct-20 05:04N 48°50' W 002°15'111.3
2018-Oct-20 05:00N 48°51' W 002°16'711.3
2018-Oct-20 04:25N 48°56' W 002°22'612.1
2018-Oct-20 03:58N 49°01' W 002°23'612.2
2018-Oct-20 03:30N 49°07' W 002°22'712.1
2018-Oct-20 02:55N 49°14' W 002°21'511.5
2018-Oct-20 02:30N 49°19' W 002°20'511.6
2018-Oct-20 02:03N 49°23' W 002°16'112.3
2018-Oct-20 02:00N 49°24' W 002°16'612.2
2018-Oct-20 01:31N 49°29' W 002°12'612.3
2018-Oct-20 01:03N 49°34' W 002°09'112.9
2018-Oct-20 01:00N 49°35' W 002°08'1114.1
2018-Oct-20 00:14N 49°45' W 002°01'317.5
2018-Oct-20 00:03N 49°47' W 001°59'116.9
2018-Oct-20 00:01N 49°48' W 001°58'917.2
2018-Oct-19 23:30N 49°55' W 001°50'817.1
2018-Oct-19 23:03N 50°02' W 001°44'117.0
2018-Oct-19 23:00N 50°03' W 001°44'917.1
2018-Oct-19 22:30N 50°10' W 001°38'817.1
2018-Oct-19 22:03N 50°16' W 001°30'117.5
2018-Oct-19 22:00N 50°17' W 001°30'916.9
2018-Oct-19 21:29N 50°24' W 001°21'716.9
2018-Oct-19 21:03N 50°30' W 001°15'117.0
2018-Oct-19 21:00N 50°31' W 001°14'816.9
2018-Oct-19 20:31N 50°38' W 001°07'613.5
2018-Oct-19 20:04N 50°43' W 001°03'112.0
2018-Oct-19 20:00N 50°44' W 001°04'510.4
2018-Oct-19 19:30N 50°49' W 001°06'0 1.0
2018-Oct-19 19:01N 50°49' W 001°06'0 0.1
2018-Oct-19 18:58N 50°49' W 001°06'0 0.0
2018-Oct-19 18:28N 50°49' W 001°06'0 0.0
2018-Oct-19 18:01N 50°49' W 001°06'0 0.1
2018-Oct-19 17:58N 50°49' W 001°06'0 0.0
2018-Oct-19 17:29N 50°49' W 001°06'1 2.0
2018-Oct-19 17:03N 50°48' W 001°07'0 9.6
2018-Oct-19 17:00N 50°48' W 001°07'612.0
2018-Oct-19 16:30N 50°42' W 001°03'614.0
2018-Oct-19 16:03N 50°37' W 001°07'115.7
2018-Oct-19 16:00N 50°36' W 001°08'816.0
2018-Oct-19 15:30N 50°29' W 001°15'716.0
2018-Oct-19 15:03N 50°24' W 001°22'116.0
2018-Oct-19 15:00N 50°23' W 001°23'816.5
2018-Oct-19 14:30N 50°17' W 001°31'1818.2
2018-Oct-19 13:31N 50°01' W 001°45'817.9
2018-Oct-19 13:03N 49°54' W 001°52'119.2
2018-Oct-19 13:01N 49°54' W 001°53'1019.5
2018-Oct-19 12:30N 49°45' W 002°02'818.6
2018-Oct-19 12:03N 49°38' W 002°07'118.6
2018-Oct-19 12:00N 49°37' W 002°08'918.6
2018-Oct-19 11:30N 49°28' W 002°13'818.6
2018-Oct-19 11:03N 49°21' W 002°18'118.5
2018-Oct-19 11:00N 49°20' W 002°19'1618.3
2018-Oct-19 10:06N 49°04' W 002°21'219.0
2018-Oct-19 10:01N 49°02' W 002°21'018.7
2018-Oct-19 10:00N 49°01' W 002°21'1118.4
2018-Oct-19 09:22N 48°50' W 002°16'619.2
2018-Oct-19 09:02N 48°45' W 002°10'618.9
2018-Oct-19 08:44N 48°41' W 002°06'3 9.0
2018-Oct-19 08:22N 48°38' W 002°02'0 0.0
2018-Oct-19 07:46N 48°38' W 002°02'0 0.0
2018-Oct-19 07:22N 48°38' W 002°02'0 0.0
2018-Oct-19 06:58N 48°38' W 002°02'0 0.1
2018-Oct-19 06:04N 48°38' W 002°02'0 0.3
2018-Oct-19 06:01N 48°38' W 002°02'0 2.2
2018-Oct-19 06:00N 48°38' W 002°02'1414.7
2018-Oct-19 05:05N 48°49' W 002°14'011.2
2018-Oct-19 05:03N 48°49' W 002°15'411.1
2018-Oct-19 04:41N 48°53' W 002°19'211.1
2018-Oct-19 04:30N 48°54' W 002°21'811.2
2018-Oct-19 03:50N 49°01' W 002°23'511.8
2018-Oct-19 03:25N 49°06' W 002°23'711.6
2018-Oct-19 02:51N 49°13' W 002°22'511.4
2018-Oct-19 02:26N 49°18' W 002°20'411.6
2018-Oct-19 02:03N 49°22' W 002°18'115.2
2018-Oct-19 02:00N 49°22' W 002°17'815.3
2018-Oct-19 01:30N 49°29' W 002°12'715.2
2018-Oct-19 01:03N 49°35' W 002°07'115.5
2018-Oct-19 00:59N 49°36' W 002°07'815.2
2018-Oct-19 00:27N 49°44' W 002°03'615.7
2018-Oct-19 00:03N 49°49' W 001°58'116.0
2018-Oct-19 00:00N 49°50' W 001°57'816.0
2018-Oct-18 23:30N 49°57' W 001°51'716.5
2018-Oct-18 23:03N 50°03' W 001°44'116.7
2018-Oct-18 23:00N 50°04' W 001°44'816.7
2018-Oct-18 22:31N 50°10' W 001°36'716.6
2018-Oct-18 22:04N 50°17' W 001°29'116.6
2018-Oct-18 22:01N 50°17' W 001°29'916.6
2018-Oct-18 21:29N 50°25' W 001°21'716.7
2018-Oct-18 21:03N 50°31' W 001°15'116.9
2018-Oct-18 21:01N 50°31' W 001°14'816.8
2018-Oct-18 20:30N 50°38' W 001°06'612.7
2018-Oct-18 20:04N 50°43' W 001°03'112.5
2018-Oct-18 20:00N 50°44' W 001°04'510.4
2018-Oct-18 19:31N 50°48' W 001°07'1 1.5
2018-Oct-18 19:01N 50°49' W 001°06'0 0.2
2018-Oct-18 18:59N 50°49' W 001°06'0 0.0
2018-Oct-18 18:29N 50°49' W 001°06'0 0.0
2018-Oct-18 18:01N 50°49' W 001°06'0 0.2
2018-Oct-18 17:59N 50°49' W 001°06'0 0.0
2018-Oct-18 17:28N 50°49' W 001°06'1 2.1
2018-Oct-18 17:03N 50°48' W 001°07'0 9.6
2018-Oct-18 17:00N 50°48' W 001°07'611.3
2018-Oct-18 16:30N 50°43' W 001°03'613.6
2018-Oct-18 16:03N 50°37' W 001°07'115.6
2018-Oct-18 16:00N 50°36' W 001°08'816.3
2018-Oct-18 15:30N 50°29' W 001°14'817.2
2018-Oct-18 15:03N 50°23' W 001°21'218.4
2018-Oct-18 14:58N 50°22' W 001°23'818.3
2018-Oct-18 14:31N 50°15' W 001°30'918.2
2018-Oct-18 14:00N 50°07' W 001°38'918.1
2018-Oct-18 13:30N 49°60' W 001°46'818.1
2018-Oct-18 13:03N 49°53' W 001°53'117.8
2018-Oct-18 13:00N 49°52' W 001°53'918.8
2018-Oct-18 12:30N 49°44' W 002°02'1019.9
2018-Oct-18 12:00N 49°35' W 002°09'1019.5
2018-Oct-18 11:30N 49°26' W 002°14'1419.1
2018-Oct-18 10:48N 49°14' W 002°21'1219.2
2018-Oct-18 10:09N 49°01' W 002°21'219.4
2018-Oct-18 10:03N 48°59' W 002°21'119.7
2018-Oct-18 10:00N 48°58' W 002°21'918.6
2018-Oct-18 09:30N 48°50' W 002°16'919.3
2018-Oct-18 09:03N 48°43' W 002°08'119.1
2018-Oct-18 09:00N 48°42' W 002°07'4 1.1
2018-Oct-18 05:27N 48°46' W 002°09'1314.1
2018-Oct-18 04:29N 48°56' W 002°23'1011.8
2018-Oct-18 03:40N 49°05' W 002°24'312.1
2018-Oct-18 03:24N 49°09' W 002°23'512.0
2018-Oct-18 02:58N 49°14' W 002°22'511.7
2018-Oct-18 02:30N 49°19' W 002°20'612.5
2018-Oct-18 02:03N 49°24' W 002°16'116.2
2018-Oct-18 02:00N 49°25' W 002°15'815.7
2018-Oct-18 01:30N 49°32' W 002°11'715.4
2018-Oct-18 01:03N 49°38' W 002°07'115.1
2018-Oct-18 01:00N 49°39' W 002°06'713.9
2018-Oct-18 00:30N 49°45' W 002°01'714.8
2018-Oct-18 00:04N 49°50' W 001°54'115.4
2018-Oct-18 00:00N 49°51' W 001°54'815.7
2018-Oct-17 23:30N 49°57' W 001°46'716.0
2018-Oct-17 23:04N 50°03' W 001°39'116.3
2018-Oct-17 23:01N 50°03' W 001°38'816.4
2018-Oct-17 22:30N 50°10' W 001°31'716.5
2018-Oct-17 22:03N 50°16' W 001°24'115.9
2018-Oct-17 22:01N 50°16' W 001°23'816.2
2018-Oct-17 21:30N 50°25' W 001°21'715.9
2018-Oct-17 21:03N 50°31' W 001°15'111.0
2018-Oct-17 21:00N 50°31' W 001°14'816.2
2018-Oct-17 20:30N 50°37' W 001°07'613.9
2018-Oct-17 20:04N 50°43' W 001°03'113.7
2018-Oct-17 20:01N 50°44' W 001°03'510.6
2018-Oct-17 19:30N 50°49' W 001°07'1 1.2
2018-Oct-17 19:03N 50°49' W 001°06'0 0.0
2018-Oct-17 18:57N 50°49' W 001°06'0 0.0
2018-Oct-17 18:27N 50°49' W 001°06'0 0.0
2018-Oct-17 18:03N 50°49' W 001°06'0 0.0
2018-Oct-17 17:57N 50°49' W 001°06'0 0.0
2018-Oct-17 17:27N 50°49' W 001°06'0 0.0
2018-Oct-17 17:03N 50°49' W 001°06'0 0.1
2018-Oct-17 16:57N 50°49' W 001°06'0 0.0
2018-Oct-17 16:27N 50°49' W 001°06'0 0.0
2018-Oct-17 16:03N 50°49' W 001°06'0 0.0
2018-Oct-17 15:57N 50°49' W 001°06'0 0.0
2018-Oct-17 15:27N 50°49' W 001°06'0 0.0
2018-Oct-17 15:03N 50°49' W 001°06'0 0.1
2018-Oct-17 14:57N 50°49' W 001°06'0 0.0
2018-Oct-17 14:03N 50°49' W 001°06'0 0.0
2018-Oct-17 13:27N 50°49' W 001°06'0 0.0
2018-Oct-17 13:03N 50°49' W 001°06'0 0.0
2018-Oct-17 12:57N 50°49' W 001°06'0 0.0
2018-Oct-17 12:28N 50°49' W 001°06'0 0.0
2018-Oct-17 12:02N 50°49' W 001°06'0 0.1
2018-Oct-17 11:58N 50°49' W 001°06'0 0.0
2018-Oct-17 11:28N 50°49' W 001°06'0 0.0
2018-Oct-17 11:02N 50°49' W 001°06'0 0.1
2018-Oct-17 10:58N 50°49' W 001°06'0 0.0
2018-Oct-17 10:28N 50°49' W 001°06'0 0.0
2018-Oct-17 10:02N 50°49' W 001°06'0 0.0
2018-Oct-17 09:58N 50°49' W 001°06'0 0.0
2018-Oct-17 09:28N 50°49' W 001°06'0 0.0
2018-Oct-17 09:02N 50°49' W 001°06'0 0.1
2018-Oct-17 08:58N 50°49' W 001°06'0 0.0
2018-Oct-17 08:28N 50°49' W 001°06'0 0.0
2018-Oct-17 08:02N 50°49' W 001°06'0 0.1
2018-Oct-17 07:58N 50°49' W 001°06'0 0.0
2018-Oct-17 07:28N 50°49' W 001°06'0 1.0
2018-Oct-17 07:04N 50°49' W 001°06'0 8.5
2018-Oct-17 07:01N 50°48' W 001°07'5 9.1
2018-Oct-17 06:31N 50°44' W 001°04'4 8.8
2018-Oct-17 06:04N 50°40' W 001°04'114.9
2018-Oct-17 06:00N 50°40' W 001°04'816.6
2018-Oct-17 05:30N 50°32' W 001°11'716.5
2018-Oct-17 05:03N 50°26' W 001°17'115.7
2018-Oct-17 05:01N 50°25' W 001°18'815.9
2018-Oct-17 04:30N 50°18' W 001°24'715.9
2018-Oct-17 04:03N 50°12' W 001°29'112.2
2018-Oct-17 04:00N 50°12' W 001°30'612.5
2018-Oct-17 03:30N 50°06' W 001°35'612.7
2018-Oct-17 03:03N 50°02' W 001°40'112.8
2018-Oct-17 03:01N 50°01' W 001°40'713.0
2018-Oct-17 02:30N 49°56' W 001°47'613.5
2018-Oct-17 02:03N 49°52' W 001°54'113.7
2018-Oct-17 02:00N 49°51' W 001°54'714.2
2018-Oct-17 01:30N 49°46' W 002°01'714.5
2018-Oct-17 01:02N 49°40' W 002°06'013.7
2018-Oct-17 01:00N 49°39' W 002°06'713.8
2018-Oct-17 00:30N 49°33' W 002°09'613.4
2018-Oct-17 00:03N 49°27' W 002°14'113.4
2018-Oct-16 23:59N 49°27' W 002°15'613.5
2018-Oct-16 23:30N 49°21' W 002°19'613.0
2018-Oct-16 23:03N 49°15' W 002°21'512.7
2018-Oct-16 22:40N 49°10' W 002°22'611.5
2018-Oct-16 22:07N 49°04' W 002°22'211.0
2018-Oct-16 21:55N 49°02' W 002°22'510.8
2018-Oct-16 21:27N 48°57' W 002°21'410.9
2018-Oct-16 21:03N 48°53' W 002°19'111.1
2018-Oct-16 21:00N 48°52' W 002°18'510.8
2018-Oct-16 20:30N 48°48' W 002°12'511.1
2018-Oct-16 20:03N 48°45' W 002°08'1 9.3
2018-Oct-16 19:55N 48°43' W 002°08'3 4.4
2018-Oct-16 19:17N 48°46' W 002°07'2 6.9
2018-Oct-16 18:57N 48°44' W 002°08'31 2.0
2018-Oct-16 02:58N 49°14' W 002°22'816.7
2018-Oct-16 02:30N 49°22' W 002°18'715.9
2018-Oct-16 02:03N 49°28' W 002°13'114.7
2018-Oct-16 02:00N 49°29' W 002°12'714.5
2018-Oct-16 01:30N 49°35' W 002°08'1113.9
2018-Oct-16 00:44N 49°45' W 002°02'313.0
2018-Oct-16 00:30N 49°47' W 001°59'613.7
2018-Oct-16 00:04N 49°52' W 001°53'114.4
2018-Oct-16 00:00N 49°53' W 001°52'714.8
2018-Oct-15 23:31N 49°59' W 001°45'715.0
2018-Oct-15 23:04N 50°04' W 001°39'115.3
2018-Oct-15 23:00N 50°05' W 001°39'815.5
2018-Oct-15 22:30N 50°12' W 001°33'715.7
2018-Oct-15 22:04N 50°17' W 001°27'115.5
2018-Oct-15 22:00N 50°18' W 001°26'816.1
2018-Oct-15 21:30N 50°25' W 001°19'716.2
2018-Oct-15 21:03N 50°31' W 001°13'116.1
2018-Oct-15 21:00N 50°32' W 001°12'815.8
2018-Oct-15 20:30N 50°38' W 001°06'511.4
2018-Oct-15 20:03N 50°43' W 001°03'111.5
2018-Oct-15 20:01N 50°44' W 001°03'510.5
2018-Oct-15 19:30N 50°49' W 001°07'1 1.7
2018-Oct-15 19:02N 50°49' W 001°06'0 0.1
2018-Oct-15 18:59N 50°49' W 001°06'0 0.0
2018-Oct-15 18:29N 50°49' W 001°06'0 0.0
2018-Oct-15 18:02N 50°49' W 001°06'0 0.0
2018-Oct-15 17:59N 50°49' W 001°06'0 0.0
2018-Oct-15 17:29N 50°49' W 001°06'1 2.1
2018-Oct-15 17:03N 50°48' W 001°07'0 9.1
2018-Oct-15 17:00N 50°48' W 001°07'611.9
2018-Oct-15 16:30N 50°42' W 001°03'613.3
2018-Oct-15 16:03N 50°37' W 001°07'010.1
2018-Oct-15 16:00N 50°37' W 001°08'510.8
2018-Oct-15 15:30N 50°32' W 001°12'613.4
2018-Oct-15 15:03N 50°27' W 001°17'116.3
2018-Oct-15 15:00N 50°26' W 001°18'816.3
2018-Oct-15 14:30N 50°19' W 001°22'816.8
2018-Oct-15 14:00N 50°11' W 001°27'917.3
2018-Oct-15 13:31N 50°03' W 001°34'817.6
2018-Oct-15 13:03N 49°58' W 001°42'117.7
2018-Oct-15 13:00N 49°57' W 001°43'918.0
2018-Oct-15 12:30N 49°51' W 001°53'1319.7
2018-Oct-15 11:52N 49°39' W 002°01'720.4
2018-Oct-15 11:30N 49°32' W 001°60'919.9
2018-Oct-15 11:02N 49°23' W 001°57'19 2.4
2018-Oct-15 03:08N 49°13' W 002°22'213.1
2018-Oct-15 02:59N 49°15' W 002°22'613.0
2018-Oct-15 02:30N 49°21' W 002°19'612.9
2018-Oct-15 02:03N 49°26' W 002°15'112.4
2018-Oct-15 02:01N 49°27' W 002°15'612.5
2018-Oct-15 01:30N 49°32' W 002°11'613.3
2018-Oct-15 01:03N 49°38' W 002°07'115.4
2018-Oct-15 01:00N 49°39' W 002°06'714.7
2018-Oct-15 00:30N 49°45' W 002°01'613.3
2018-Oct-15 00:03N 49°50' W 001°56'113.4
2018-Oct-15 00:00N 49°51' W 001°55'714.0
2018-Oct-14 23:31N 49°56' W 001°49'614.3
2018-Oct-14 23:03N 50°02' W 001°44'114.4
2018-Oct-14 23:00N 50°02' W 001°43'714.5
2018-Oct-14 22:30N 50°08' W 001°37'714.9
2018-Oct-14 22:04N 50°14' W 001°31'114.8
2018-Oct-14 22:00N 50°15' W 001°30'815.2
2018-Oct-14 21:30N 50°21' W 001°24'815.5
2018-Oct-14 21:00N 50°27' W 001°17'815.8
2018-Oct-14 20:30N 50°34' W 001°10'715.1
2018-Oct-14 20:03N 50°40' W 001°04'110.6
2018-Oct-14 20:01N 50°40' W 001°04'510.6
2018-Oct-14 19:31N 50°45' W 001°05'3 7.4
2018-Oct-14 19:03N 50°49' W 001°06'0 1.3
2018-Oct-14 19:00N 50°49' W 001°06'0 0.0
2018-Oct-14 18:30N 50°49' W 001°06'0 0.0
2018-Oct-14 18:03N 50°49' W 001°06'0 0.0
2018-Oct-14 17:58N 50°49' W 001°06'0 0.0
2018-Oct-14 17:28N 50°49' W 001°06'1 1.5
2018-Oct-14 17:04N 50°49' W 001°07'0 8.5
2018-Oct-14 17:00N 50°48' W 001°07'612.6
2018-Oct-14 16:31N 50°42' W 001°03'714.8
2018-Oct-14 16:04N 50°36' W 001°07'115.1
2018-Oct-14 16:01N 50°36' W 001°08'611.5
2018-Oct-14 15:30N 50°31' W 001°12'4 9.3
2018-Oct-14 15:03N 50°27' W 001°16'010.0
2018-Oct-14 15:00N 50°27' W 001°16'1314.1
2018-Oct-14 14:03N 50°15' W 001°25'117.0
2018-Oct-14 14:00N 50°14' W 001°26'917.3
2018-Oct-14 13:31N 50°08' W 001°35'817.9
2018-Oct-14 13:03N 50°01' W 001°42'118.4
2018-Oct-14 13:00N 50°00' W 001°43'918.5
2018-Oct-14 12:30N 49°53' W 001°51'919.8
2018-Oct-14 12:04N 49°45' W 001°59'120.9
2018-Oct-14 12:00N 49°45' W 002°00'918.8
2018-Oct-14 11:30N 49°35' W 001°60'1020.2
2018-Oct-14 11:00N 49°25' W 001°57'21 2.7
2018-Oct-14 03:15N 49°14' W 002°25'317.2
2018-Oct-14 03:03N 49°18' W 002°25'116.6
2018-Oct-14 03:00N 49°19' W 002°25'815.9
2018-Oct-14 02:30N 49°25' W 002°16'716.7
2018-Oct-14 02:03N 49°31' W 002°11'116.8
2018-Oct-14 02:00N 49°32' W 002°11'1416.5
2018-Oct-14 01:08N 49°45' W 002°00'117.2
2018-Oct-14 01:03N 49°46' W 001°59'117.0
2018-Oct-14 01:01N 49°46' W 001°58'815.9
2018-Oct-14 00:31N 49°49' W 001°46'715.9
2018-Oct-14 00:03N 49°52' W 001°36'115.5
2018-Oct-14 00:00N 49°52' W 001°35'815.3
2018-Oct-13 23:30N 49°59' W 001°29'715.5
2018-Oct-13 23:03N 50°06' W 001°30'114.4
2018-Oct-13 23:00N 50°07' W 001°30'713.8
2018-Oct-13 22:31N 50°14' W 001°29'612.6
2018-Oct-13 22:03N 50°19' W 001°25'112.3
2018-Oct-13 22:00N 50°19' W 001°25'712.9
2018-Oct-13 21:30N 50°25' W 001°20'613.1
2018-Oct-13 21:03N 50°30' W 001°15'113.3
2018-Oct-13 21:00N 50°30' W 001°14'713.4
2018-Oct-13 20:31N 50°36' W 001°08'613.4
2018-Oct-13 20:03N 50°41' W 001°02'112.7
2018-Oct-13 20:01N 50°41' W 001°02'611.9
2018-Oct-13 19:30N 50°47' W 001°06'2 4.3
2018-Oct-13 19:02N 50°49' W 001°06'0 0.0
2018-Oct-13 18:59N 50°49' W 001°06'0 0.0
2018-Oct-13 18:29N 50°49' W 001°06'0 0.0
2018-Oct-13 18:02N 50°49' W 001°06'0 0.0
2018-Oct-13 17:59N 50°49' W 001°06'0 0.0
2018-Oct-13 17:29N 50°49' W 001°06'1 2.2
2018-Oct-13 17:03N 50°48' W 001°07'0 8.0
2018-Oct-13 17:00N 50°48' W 001°07'612.2
2018-Oct-13 16:31N 50°42' W 001°03'612.7
2018-Oct-13 16:04N 50°37' W 001°07'113.3
2018-Oct-13 16:01N 50°37' W 001°07'5 9.6
2018-Oct-13 15:31N 50°33' W 001°12'4 9.9
2018-Oct-13 15:03N 50°29' W 001°16'110.6
2018-Oct-13 15:00N 50°28' W 001°16'714.2
2018-Oct-13 14:30N 50°23' W 001°22'815.3
2018-Oct-13 14:00N 50°17' W 001°30'815.9
2018-Oct-13 13:30N 50°10' W 001°35'716.4
2018-Oct-13 13:03N 50°03' W 001°41'117.0
2018-Oct-13 13:01N 50°02' W 001°42'917.5
2018-Oct-13 12:30N 49°55' W 001°49'818.5
2018-Oct-13 12:04N 49°48' W 001°56'119.4
2018-Oct-13 12:00N 49°47' W 001°57'1019.1
2018-Oct-13 11:30N 49°38' W 002°01'1521.3
2018-Oct-13 10:49N 49°24' W 001°57'721.4
2018-Oct-13 10:30N 49°17' W 001°53'919.6
2018-Oct-13 10:03N 49°09' W 001°53'1618.7
2018-Oct-13 09:13N 48°53' W 001°59'720.0
2018-Oct-13 08:51N 48°46' W 002°00'718.1
2018-Oct-13 08:28N 48°39' W 002°03'1 1.8
2018-Oct-13 07:52N 48°38' W 002°02'0 0.0
2018-Oct-13 07:16N 48°38' W 002°02'0 0.0
2018-Oct-13 06:51N 48°38' W 002°02'0 0.1
2018-Oct-13 06:00N 48°38' W 002°02'2115.2
2018-Oct-13 04:39N 48°55' W 002°21'1916.5
2018-Oct-13 03:30N 49°13' W 002°28'817.3
2018-Oct-13 03:03N 49°21' W 002°28'114.9
2018-Oct-13 03:00N 49°21' W 002°27'916.9
2018-Oct-13 02:30N 49°26' W 002°16'716.4
2018-Oct-13 02:03N 49°32' W 002°11'116.6
2018-Oct-13 02:00N 49°33' W 002°11'816.7
2018-Oct-13 01:30N 49°41' W 002°06'920.0
2018-Oct-13 01:04N 49°47' W 001°56'120.0
2018-Oct-13 01:01N 49°47' W 001°54'918.4
2018-Oct-13 00:31N 49°50' W 001°41'715.9
2018-Oct-13 00:04N 49°53' W 001°31'115.1
2018-Oct-13 00:00N 49°54' W 001°30'815.0
2018-Oct-12 23:30N 49°59' W 001°21'714.9
2018-Oct-12 23:04N 50°05' W 001°16'115.6
2018-Oct-12 23:01N 50°05' W 001°16'816.5
2018-Oct-12 22:30N 50°14' W 001°18'716.6
2018-Oct-12 22:03N 50°21' W 001°21'116.7
2018-Oct-12 22:01N 50°22' W 001°21'916.7
2018-Oct-12 21:30N 50°30' W 001°24'510.3
2018-Oct-12 21:03N 50°33' W 001°18'413.8
2018-Oct-12 20:48N 50°33' W 001°13'414.0
2018-Oct-12 20:30N 50°36' W 001°08'613.6
2018-Oct-12 20:03N 50°41' W 001°02'111.5
2018-Oct-12 20:00N 50°41' W 001°02'611.6
2018-Oct-12 19:30N 50°47' W 001°06'2 4.2
2018-Oct-12 19:01N 50°49' W 001°06'0 0.1
2018-Oct-12 18:58N 50°49' W 001°06'0 0.0
2018-Oct-12 18:28N 50°49' W 001°06'0 0.0
2018-Oct-12 18:01N 50°49' W 001°06'0 0.0
2018-Oct-12 17:58N 50°49' W 001°06'0 0.0
2018-Oct-12 17:28N 50°49' W 001°06'1 2.1
2018-Oct-12 17:03N 50°48' W 001°07'0 9.4
2018-Oct-12 17:00N 50°48' W 001°07'612.6
2018-Oct-12 16:31N 50°42' W 001°03'511.8
2018-Oct-12 16:03N 50°37' W 001°07'0 9.9
2018-Oct-12 16:01N 50°37' W 001°07'5 9.1
2018-Oct-12 15:31N 50°33' W 001°11'612.7
2018-Oct-12 15:03N 50°29' W 001°16'113.5
2018-Oct-12 15:00N 50°28' W 001°17'714.0
2018-Oct-12 14:30N 50°22' W 001°23'714.8
2018-Oct-12 14:00N 50°16' W 001°29'815.2
2018-Oct-12 13:30N 50°09' W 001°34'715.3
2018-Oct-12 13:03N 50°03' W 001°40'115.2
2018-Oct-12 13:00N 50°03' W 001°41'917.9
2018-Oct-12 12:30N 49°55' W 001°49'919.1
2018-Oct-12 12:03N 49°48' W 001°57'119.8
2018-Oct-12 12:00N 49°48' W 001°58'918.8
2018-Oct-12 11:30N 49°38' W 002°01'1520.9
2018-Oct-12 10:47N 49°24' W 001°57'3119.0
2018-Oct-12 09:10N 48°53' W 001°59'11 2.8
2018-Oct-12 05:26N 48°44' W 002°09'616.7
2018-Oct-12 05:03N 48°49' W 002°14'117.3
2018-Oct-12 05:00N 48°50' W 002°15'817.0
2018-Oct-12 04:30N 48°57' W 002°22'716.3
2018-Oct-12 04:03N 49°05' W 002°22'116.3
2018-Oct-12 04:00N 49°06' W 002°22'916.6
2018-Oct-12 03:27N 49°15' W 002°23'616.1
2018-Oct-12 03:03N 49°21' W 002°23'115.1
2018-Oct-12 03:00N 49°22' W 002°23'816.8
2018-Oct-12 02:30N 49°28' W 002°14'714.7
2018-Oct-12 02:03N 49°34' W 002°10'112.8
2018-Oct-12 02:00N 49°35' W 002°09'1113.9
2018-Oct-12 01:15N 49°44' W 002°03'317.5
2018-Oct-12 01:03N 49°47' W 002°00'116.0
2018-Oct-12 01:00N 49°48' W 001°60'815.6
2018-Oct-12 00:30N 49°54' W 001°53'714.7
2018-Oct-12 00:04N 49°60' W 001°48'114.0
2018-Oct-12 00:00N 50°00' W 001°47'713.9
2018-Oct-11 23:30N 50°06' W 001°41'613.2
2018-Oct-11 23:04N 50°11' W 001°36'112.6
2018-Oct-11 23:00N 50°12' W 001°36'613.0
2018-Oct-11 22:30N 50°17' W 001°29'613.1
2018-Oct-11 22:03N 50°21' W 001°24'113.2
2018-Oct-11 22:00N 50°22' W 001°23'713.0
2018-Oct-11 21:30N 50°27' W 001°17'612.6
2018-Oct-11 21:03N 50°32' W 001°12'112.7
2018-Oct-11 21:00N 50°33' W 001°12'612.6
2018-Oct-11 20:30N 50°38' W 001°06'511.0
2018-Oct-11 20:03N 50°42' W 001°03'111.8
2018-Oct-11 20:00N 50°43' W 001°03'611.6
2018-Oct-11 19:30N 50°48' W 001°07'1 1.8
2018-Oct-11 19:01N 50°49' W 001°06'0 0.1
2018-Oct-11 18:58N 50°49' W 001°06'0 0.0
2018-Oct-11 18:28N 50°49' W 001°06'0 0.0
2018-Oct-11 18:01N 50°49' W 001°06'0 0.1
2018-Oct-11 17:58N 50°49' W 001°06'0 0.0
2018-Oct-11 17:28N 50°49' W 001°06'0 0.0
2018-Oct-11 17:04N 50°49' W 001°06'0 0.0
2018-Oct-11 17:01N 50°49' W 001°06'3 5.1
2018-Oct-11 16:30N 50°46' W 001°05'613.3
2018-Oct-11 16:03N 50°40' W 001°04'113.9
2018-Oct-11 16:00N 50°40' W 001°04'816.2
2018-Oct-11 15:31N 50°33' W 001°11'817.0
2018-Oct-11 15:03N 50°27' W 001°18'117.3
2018-Oct-11 15:00N 50°26' W 001°19'917.5
2018-Oct-11 14:30N 50°19' W 001°26'917.5
2018-Oct-11 14:00N 50°12' W 001°34'917.7
2018-Oct-11 13:31N 50°04' W 001°42'818.5
2018-Oct-11 13:04N 49°57' W 001°48'118.7
2018-Oct-11 13:01N 49°56' W 001°48'918.8
2018-Oct-11 12:31N 49°48' W 001°57'1017.1
2018-Oct-11 11:57N 49°40' W 002°03'919.8
2018-Oct-11 11:28N 49°30' W 002°04'5210.8
2018-Oct-11 06:40N 48°38' W 002°02'3 3.0
2018-Oct-11 05:47N 48°40' W 002°05'818.2
2018-Oct-11 05:22N 48°46' W 002°11'516.9
2018-Oct-11 05:03N 48°51' W 002°16'114.7
2018-Oct-11 05:00N 48°51' W 002°17'714.1
2018-Oct-11 04:30N 48°57' W 002°22'713.0
2018-Oct-11 03:58N 49°04' W 002°22'813.1
2018-Oct-11 03:20N 49°13' W 002°21'413.0
2018-Oct-11 02:59N 49°17' W 002°21'613.4
2018-Oct-11 02:30N 49°23' W 002°16'613.6
2018-Oct-11 02:03N 49°28' W 002°11'113.6
2018-Oct-11 02:00N 49°29' W 002°11'713.7
2018-Oct-11 01:30N 49°34' W 002°05'715.0
2018-Oct-11 01:03N 49°41' W 002°03'116.7
2018-Oct-11 01:00N 49°42' W 002°03'714.1
2018-Oct-11 00:30N 49°48' W 001°59'613.3
2018-Oct-11 00:04N 49°53' W 001°53'112.5
2018-Oct-11 00:00N 49°54' W 001°53'715.0
2018-Oct-10 23:30N 49°60' W 001°46'715.4
2018-Oct-10 23:04N 50°06' W 001°41'114.9
2018-Oct-10 23:01N 50°06' W 001°40'714.7
2018-Oct-10 22:30N 50°12' W 001°33'614.3
2018-Oct-10 22:04N 50°18' W 001°28'114.0
2018-Oct-10 22:00N 50°18' W 001°27'713.8
2018-Oct-10 21:30N 50°24' W 001°21'613.6
2018-Oct-10 21:03N 50°29' W 001°15'113.4
2018-Oct-10 21:00N 50°30' W 001°15'613.0
2018-Oct-10 20:30N 50°35' W 001°09'612.9
2018-Oct-10 20:03N 50°40' W 001°04'112.6
2018-Oct-10 20:00N 50°40' W 001°04'612.1
2018-Oct-10 19:31N 50°46' W 001°06'2 5.0
2018-Oct-10 19:01N 50°49' W 001°06'0 0.1
2018-Oct-10 18:58N 50°49' W 001°06'0 0.0
2018-Oct-10 18:28N 50°49' W 001°06'0 0.0
2018-Oct-10 18:01N 50°49' W 001°06'0 0.0
2018-Oct-10 17:58N 50°49' W 001°06'0 0.0
2018-Oct-10 17:28N 50°49' W 001°06'0 0.0
2018-Oct-10 17:01N 50°49' W 001°06'0 0.0
2018-Oct-10 16:58N 50°49' W 001°06'0 0.0
2018-Oct-10 16:28N 50°49' W 001°06'0 0.0
2018-Oct-10 16:01N 50°49' W 001°06'0 0.1
2018-Oct-10 15:58N 50°49' W 001°06'0 0.0
2018-Oct-10 15:28N 50°49' W 001°06'0 0.0
2018-Oct-10 15:01N 50°49' W 001°06'0 0.0
2018-Oct-10 14:58N 50°49' W 001°06'0 0.0
2018-Oct-10 14:01N 50°49' W 001°06'0 0.0
2018-Oct-10 13:58N 50°49' W 001°06'0 0.0
2018-Oct-10 13:28N 50°49' W 001°06'0 0.0
2018-Oct-10 13:02N 50°49' W 001°06'  
Track history (hours):
 
Tides and Currents Weather Stations Pressure Air Temp Water Temp Dewpoint Dewpoint Depression Visibility Wind Speed Wind Dir Waves Ship Positions

Bretagne

Operator: Brittany Ferries

Last reported at 2018-Oct-20 13:03 UTC. Time now 2018-Oct-20 13:21 UTC.
Position N 49°53' W 001°54'.

Length 151 m; beam 27 m.

Type: Ship. MMSI: 227286000.

Date/timePositionNaut miles runAvg speedWind from/ knotsBaromVisibWave heightAir tempDewpointWater temp
2018-Oct-20 13:03N 49°53' W 001°54'118.8
2018-Oct-20 13:00N 49°52' W 001°54'918.5
2018-Oct-20 12:31N 49°44' W 002°01'817.5
2018-Oct-20 12:03N 49°37' W 002°08'118.0
2018-Oct-20 12:01N 49°36' W 002°08'918.2
2018-Oct-20 11:30N 49°28' W 002°14'818.2
2018-Oct-20 11:03N 49°21' W 002°19'118.4
2018-Oct-20 11:00N 49°20' W 002°19'918.2
2018-Oct-20 10:30N 49°11' W 002°21'818.9
2018-Oct-20 10:03N 49°02' W 002°22'119.1
2018-Oct-20 10:00N 49°01' W 002°22'919.0
2018-Oct-20 09:30N 48°52' W 002°18'919.8
2018-Oct-20 09:03N 48°45' W 002°10'119.8
2018-Oct-20 09:00N 48°44' W 002°09'8 6.6
2018-Oct-20 07:52N 48°38' W 002°02'0 0.0
2018-Oct-20 06:58N 48°38' W 002°02'0 0.1
2018-Oct-20 06:04N 48°38' W 002°02'0 0.5
2018-Oct-20 06:01N 48°38' W 002°02'1 8.8
2018-Oct-20 05:52N 48°39' W 002°03'617.6
2018-Oct-20 05:30N 48°45' W 002°08'715.4
2018-Oct-20 05:04N 48°50' W 002°15'111.3
2018-Oct-20 05:00N 48°51' W 002°16'711.3
2018-Oct-20 04:25N 48°56' W 002°22'612.1
2018-Oct-20 03:58N 49°01' W 002°23'612.2
2018-Oct-20 03:30N 49°07' W 002°22'712.1
2018-Oct-20 02:55N 49°14' W 002°21'511.5
2018-Oct-20 02:30N 49°19' W 002°20'511.6
2018-Oct-20 02:03N 49°23' W 002°16'112.3
2018-Oct-20 02:00N 49°24' W 002°16'612.2
2018-Oct-20 01:31N 49°29' W 002°12'612.3
2018-Oct-20 01:03N 49°34' W 002°09'112.9
2018-Oct-20 01:00N 49°35' W 002°08'1114.1
2018-Oct-20 00:14N 49°45' W 002°01'317.5
2018-Oct-20 00:03N 49°47' W 001°59'116.9
2018-Oct-20 00:01N 49°48' W 001°58'917.2
2018-Oct-19 23:30N 49°55' W 001°50'817.1
2018-Oct-19 23:03N 50°02' W 001°44'117.0
2018-Oct-19 23:00N 50°03' W 001°44'917.1
2018-Oct-19 22:30N 50°10' W 001°38'817.1
2018-Oct-19 22:03N 50°16' W 001°30'117.5
2018-Oct-19 22:00N 50°17' W 001°30'916.9
2018-Oct-19 21:29N 50°24' W 001°21'716.9
2018-Oct-19 21:03N 50°30' W 001°15'117.0
2018-Oct-19 21:00N 50°31' W 001°14'816.9
2018-Oct-19 20:31N 50°38' W 001°07'613.5
2018-Oct-19 20:04N 50°43' W 001°03'112.0
2018-Oct-19 20:00N 50°44' W 001°04'510.4
2018-Oct-19 19:30N 50°49' W 001°06'0 1.0
2018-Oct-19 19:01N 50°49' W 001°06'0 0.1
2018-Oct-19 18:58N 50°49' W 001°06'0 0.0
2018-Oct-19 18:28N 50°49' W 001°06'0 0.0
2018-Oct-19 18:01N 50°49' W 001°06'0 0.1
2018-Oct-19 17:58N 50°49' W 001°06'0 0.0
2018-Oct-19 17:29N 50°49' W 001°06'1 2.0
2018-Oct-19 17:03N 50°48' W 001°07'0 9.6
2018-Oct-19 17:00N 50°48' W 001°07'612.0
2018-Oct-19 16:30N 50°42' W 001°03'614.0
2018-Oct-19 16:03N 50°37' W 001°07'115.7
2018-Oct-19 16:00N 50°36' W 001°08'816.0
2018-Oct-19 15:30N 50°29' W 001°15'716.0
2018-Oct-19 15:03N 50°24' W 001°22'116.0
2018-Oct-19 15:00N 50°23' W 001°23'816.5
2018-Oct-19 14:30N 50°17' W 001°31'1818.2
2018-Oct-19 13:31N 50°01' W 001°45'817.9
2018-Oct-19 13:03N 49°54' W 001°52'119.2
2018-Oct-19 13:01N 49°54' W 001°53'1019.5
2018-Oct-19 12:30N 49°45' W 002°02'818.6
2018-Oct-19 12:03N 49°38' W 002°07'118.6
2018-Oct-19 12:00N 49°37' W 002°08'918.6
2018-Oct-19 11:30N 49°28' W 002°13'818.6
2018-Oct-19 11:03N 49°21' W 002°18'118.5
2018-Oct-19 11:00N 49°20' W 002°19'1618.3
2018-Oct-19 10:06N 49°04' W 002°21'219.0
2018-Oct-19 10:01N 49°02' W 002°21'018.7
2018-Oct-19 10:00N 49°01' W 002°21'1118.4
2018-Oct-19 09:22N 48°50' W 002°16'619.2
2018-Oct-19 09:02N 48°45' W 002°10'618.9
2018-Oct-19 08:44N 48°41' W 002°06'3 9.0
2018-Oct-19 08:22N 48°38' W 002°02'0 0.0
2018-Oct-19 07:46N 48°38' W 002°02'0 0.0
2018-Oct-19 07:22N 48°38' W 002°02'0 0.0
2018-Oct-19 06:58N 48°38' W 002°02'0 0.1
2018-Oct-19 06:04N 48°38' W 002°02'0 0.3
2018-Oct-19 06:01N 48°38' W 002°02'0 2.2
2018-Oct-19 06:00N 48°38' W 002°02'1414.7
2018-Oct-19 05:05N 48°49' W 002°14'011.2
2018-Oct-19 05:03N 48°49' W 002°15'411.1
2018-Oct-19 04:41N 48°53' W 002°19'211.1
2018-Oct-19 04:30N 48°54' W 002°21'811.2
2018-Oct-19 03:50N 49°01' W 002°23'511.8
2018-Oct-19 03:25N 49°06' W 002°23'711.6
2018-Oct-19 02:51N 49°13' W 002°22'511.4
2018-Oct-19 02:26N 49°18' W 002°20'411.6
2018-Oct-19 02:03N 49°22' W 002°18'115.2
2018-Oct-19 02:00N 49°22' W 002°17'815.3
2018-Oct-19 01:30N 49°29' W 002°12'715.2
2018-Oct-19 01:03N 49°35' W 002°07'115.5
2018-Oct-19 00:59N 49°36' W 002°07'815.2
2018-Oct-19 00:27N 49°44' W 002°03'615.7
2018-Oct-19 00:03N 49°49' W 001°58'116.0
2018-Oct-19 00:00N 49°50' W 001°57'816.0
2018-Oct-18 23:30N 49°57' W 001°51'716.5
2018-Oct-18 23:03N 50°03' W 001°44'116.7
2018-Oct-18 23:00N 50°04' W 001°44'816.7
2018-Oct-18 22:31N 50°10' W 001°36'716.6
2018-Oct-18 22:04N 50°17' W 001°29'116.6
2018-Oct-18 22:01N 50°17' W 001°29'916.6
2018-Oct-18 21:29N 50°25' W 001°21'716.7
2018-Oct-18 21:03N 50°31' W 001°15'116.9
2018-Oct-18 21:01N 50°31' W 001°14'816.8
2018-Oct-18 20:30N 50°38' W 001°06'612.7
2018-Oct-18 20:04N 50°43' W 001°03'112.5
2018-Oct-18 20:00N 50°44' W 001°04'510.4
2018-Oct-18 19:31N 50°48' W 001°07'1 1.5
2018-Oct-18 19:01N 50°49' W 001°06'0 0.2
2018-Oct-18 18:59N 50°49' W 001°06'0 0.0
2018-Oct-18 18:29N 50°49' W 001°06'0 0.0
2018-Oct-18 18:01N 50°49' W 001°06'0 0.2
2018-Oct-18 17:59N 50°49' W 001°06'0 0.0
2018-Oct-18 17:28N 50°49' W 001°06'1 2.1
2018-Oct-18 17:03N 50°48' W 001°07'0 9.6
2018-Oct-18 17:00N 50°48' W 001°07'611.3
2018-Oct-18 16:30N 50°43' W 001°03'613.6
2018-Oct-18 16:03N 50°37' W 001°07'115.6
2018-Oct-18 16:00N 50°36' W 001°08'816.3
2018-Oct-18 15:30N 50°29' W 001°14'817.2
2018-Oct-18 15:03N 50°23' W 001°21'218.4
2018-Oct-18 14:58N 50°22' W 001°23'818.3
2018-Oct-18 14:31N 50°15' W 001°30'918.2
2018-Oct-18 14:00N 50°07' W 001°38'918.1
2018-Oct-18 13:30N 49°60' W 001°46'818.1
2018-Oct-18 13:03N 49°53' W 001°53'117.8
2018-Oct-18 13:00N 49°52' W 001°53'918.8
2018-Oct-18 12:30N 49°44' W 002°02'1019.9
2018-Oct-18 12:00N 49°35' W 002°09'1019.5
2018-Oct-18 11:30N 49°26' W 002°14'1419.1
2018-Oct-18 10:48N 49°14' W 002°21'1219.2
2018-Oct-18 10:09N 49°01' W 002°21'219.4
2018-Oct-18 10:03N 48°59' W 002°21'119.7
2018-Oct-18 10:00N 48°58' W 002°21'918.6
2018-Oct-18 09:30N 48°50' W 002°16'919.3
2018-Oct-18 09:03N 48°43' W 002°08'119.1
2018-Oct-18 09:00N 48°42' W 002°07'4 1.1
2018-Oct-18 05:27N 48°46' W 002°09'1314.1
2018-Oct-18 04:29N 48°56' W 002°23'1011.8
2018-Oct-18 03:40N 49°05' W 002°24'312.1
2018-Oct-18 03:24N 49°09' W 002°23'512.0
2018-Oct-18 02:58N 49°14' W 002°22'511.7
2018-Oct-18 02:30N 49°19' W 002°20'612.5
2018-Oct-18 02:03N 49°24' W 002°16'116.2
2018-Oct-18 02:00N 49°25' W 002°15'815.7
2018-Oct-18 01:30N 49°32' W 002°11'715.4
2018-Oct-18 01:03N 49°38' W 002°07'115.1
2018-Oct-18 01:00N 49°39' W 002°06'713.9
2018-Oct-18 00:30N 49°45' W 002°01'714.8
2018-Oct-18 00:04N 49°50' W 001°54'115.4
2018-Oct-18 00:00N 49°51' W 001°54'815.7
2018-Oct-17 23:30N 49°57' W 001°46'716.0
2018-Oct-17 23:04N 50°03' W 001°39'116.3
2018-Oct-17 23:01N 50°03' W 001°38'816.4
2018-Oct-17 22:30N 50°10' W 001°31'716.5
2018-Oct-17 22:03N 50°16' W 001°24'115.9
2018-Oct-17 22:01N 50°16' W 001°23'816.2
2018-Oct-17 21:30N 50°25' W 001°21'715.9
2018-Oct-17 21:03N 50°31' W 001°15'111.0
2018-Oct-17 21:00N 50°31' W 001°14'816.2
2018-Oct-17 20:30N 50°37' W 001°07'613.9
2018-Oct-17 20:04N 50°43' W 001°03'113.7
2018-Oct-17 20:01N 50°44' W 001°03'510.6
2018-Oct-17 19:30N 50°49' W 001°07'1 1.2
2018-Oct-17 19:03N 50°49' W 001°06'0 0.0
2018-Oct-17 18:57N 50°49' W 001°06'0 0.0
2018-Oct-17 18:27N 50°49' W 001°06'0 0.0
2018-Oct-17 18:03N 50°49' W 001°06'0 0.0
2018-Oct-17 17:57N 50°49' W 001°06'0 0.0
2018-Oct-17 17:27N 50°49' W 001°06'0 0.0
2018-Oct-17 17:03N 50°49' W 001°06'0 0.1
2018-Oct-17 16:57N 50°49' W 001°06'0 0.0
2018-Oct-17 16:27N 50°49' W 001°06'0 0.0
2018-Oct-17 16:03N 50°49' W 001°06'0 0.0
2018-Oct-17 15:57N 50°49' W 001°06'0 0.0
2018-Oct-17 15:27N 50°49' W 001°06'0 0.0
2018-Oct-17 15:03N 50°49' W 001°06'0 0.1
2018-Oct-17 14:57N 50°49' W 001°06'0 0.0
2018-Oct-17 14:03N 50°49' W 001°06'0 0.0
2018-Oct-17 13:27N 50°49' W 001°06'0 0.0
2018-Oct-17 13:03N 50°49' W 001°06'0 0.0
2018-Oct-17 12:57N 50°49' W 001°06'0 0.0
2018-Oct-17 12:28N 50°49' W 001°06'0 0.0
2018-Oct-17 12:02N 50°49' W 001°06'0 0.1
2018-Oct-17 11:58N 50°49' W 001°06'0 0.0
2018-Oct-17 11:28N 50°49' W 001°06'0 0.0
2018-Oct-17 11:02N 50°49' W 001°06'0 0.1
2018-Oct-17 10:58N 50°49' W 001°06'0 0.0
2018-Oct-17 10:28N 50°49' W 001°06'0 0.0
2018-Oct-17 10:02N 50°49' W 001°06'0 0.0
2018-Oct-17 09:58N 50°49' W 001°06'0 0.0
2018-Oct-17 09:28N 50°49' W 001°06'0 0.0
2018-Oct-17 09:02N 50°49' W 001°06'0 0.1
2018-Oct-17 08:58N 50°49' W 001°06'0 0.0
2018-Oct-17 08:28N 50°49' W 001°06'0 0.0
2018-Oct-17 08:02N 50°49' W 001°06'0 0.1
2018-Oct-17 07:58N 50°49' W 001°06'0 0.0
2018-Oct-17 07:28N 50°49' W 001°06'0 1.0
2018-Oct-17 07:04N 50°49' W 001°06'0 8.5
2018-Oct-17 07:01N 50°48' W 001°07'5 9.1
2018-Oct-17 06:31N 50°44' W 001°04'4 8.8
2018-Oct-17 06:04N 50°40' W 001°04'114.9
2018-Oct-17 06:00N 50°40' W 001°04'816.6
2018-Oct-17 05:30N 50°32' W 001°11'716.5
2018-Oct-17 05:03N 50°26' W 001°17'115.7
2018-Oct-17 05:01N 50°25' W 001°18'815.9
2018-Oct-17 04:30N 50°18' W 001°24'715.9
2018-Oct-17 04:03N 50°12' W 001°29'112.2
2018-Oct-17 04:00N 50°12' W 001°30'612.5
2018-Oct-17 03:30N 50°06' W 001°35'612.7
2018-Oct-17 03:03N 50°02' W 001°40'112.8
2018-Oct-17 03:01N 50°01' W 001°40'713.0
2018-Oct-17 02:30N 49°56' W 001°47'613.5
2018-Oct-17 02:03N 49°52' W 001°54'113.7
2018-Oct-17 02:00N 49°51' W 001°54'714.2
2018-Oct-17 01:30N 49°46' W 002°01'714.5
2018-Oct-17 01:02N 49°40' W 002°06'013.7
2018-Oct-17 01:00N 49°39' W 002°06'713.8
2018-Oct-17 00:30N 49°33' W 002°09'613.4
2018-Oct-17 00:03N 49°27' W 002°14'113.4
2018-Oct-16 23:59N 49°27' W 002°15'613.5
2018-Oct-16 23:30N 49°21' W 002°19'613.0
2018-Oct-16 23:03N 49°15' W 002°21'512.7
2018-Oct-16 22:40N 49°10' W 002°22'611.5
2018-Oct-16 22:07N 49°04' W 002°22'211.0
2018-Oct-16 21:55N 49°02' W 002°22'510.8
2018-Oct-16 21:27N 48°57' W 002°21'410.9
2018-Oct-16 21:03N 48°53' W 002°19'111.1
2018-Oct-16 21:00N 48°52' W 002°18'510.8
2018-Oct-16 20:30N 48°48' W 002°12'511.1
2018-Oct-16 20:03N 48°45' W 002°08'1 9.3
2018-Oct-16 19:55N 48°43' W 002°08'3 4.4
2018-Oct-16 19:17N 48°46' W 002°07'2 6.9
2018-Oct-16 18:57N 48°44' W 002°08'31 2.0
2018-Oct-16 02:58N 49°14' W 002°22'816.7
2018-Oct-16 02:30N 49°22' W 002°18'715.9
2018-Oct-16 02:03N 49°28' W 002°13'114.7
2018-Oct-16 02:00N 49°29' W 002°12'714.5
2018-Oct-16 01:30N 49°35' W 002°08'1113.9
2018-Oct-16 00:44N 49°45' W 002°02'313.0
2018-Oct-16 00:30N 49°47' W 001°59'613.7
2018-Oct-16 00:04N 49°52' W 001°53'114.4
2018-Oct-16 00:00N 49°53' W 001°52'714.8
2018-Oct-15 23:31N 49°59' W 001°45'715.0
2018-Oct-15 23:04N 50°04' W 001°39'115.3
2018-Oct-15 23:00N 50°05' W 001°39'815.5
2018-Oct-15 22:30N 50°12' W 001°33'715.7
2018-Oct-15 22:04N 50°17' W 001°27'115.5
2018-Oct-15 22:00N 50°18' W 001°26'816.1
2018-Oct-15 21:30N 50°25' W 001°19'716.2
2018-Oct-15 21:03N 50°31' W 001°13'116.1
2018-Oct-15 21:00N 50°32' W 001°12'815.8
2018-Oct-15 20:30N 50°38' W 001°06'511.4
2018-Oct-15 20:03N 50°43' W 001°03'111.5
2018-Oct-15 20:01N 50°44' W 001°03'510.5
2018-Oct-15 19:30N 50°49' W 001°07'1 1.7
2018-Oct-15 19:02N 50°49' W 001°06'0 0.1
2018-Oct-15 18:59N 50°49' W 001°06'0 0.0
2018-Oct-15 18:29N 50°49' W 001°06'0 0.0
2018-Oct-15 18:02N 50°49' W 001°06'0 0.0
2018-Oct-15 17:59N 50°49' W 001°06'0 0.0
2018-Oct-15 17:29N 50°49' W 001°06'1 2.1
2018-Oct-15 17:03N 50°48' W 001°07'0 9.1
2018-Oct-15 17:00N 50°48' W 001°07'611.9
2018-Oct-15 16:30N 50°42' W 001°03'613.3
2018-Oct-15 16:03N 50°37' W 001°07'010.1
2018-Oct-15 16:00N 50°37' W 001°08'510.8
2018-Oct-15 15:30N 50°32' W 001°12'613.4
2018-Oct-15 15:03N 50°27' W 001°17'116.3
2018-Oct-15 15:00N 50°26' W 001°18'816.3
2018-Oct-15 14:30N 50°19' W 001°22'816.8
2018-Oct-15 14:00N 50°11' W 001°27'917.3
2018-Oct-15 13:31N 50°03' W 001°34'817.6
2018-Oct-15 13:03N 49°58' W 001°42'117.7
2018-Oct-15 13:00N 49°57' W 001°43'918.0
2018-Oct-15 12:30N 49°51' W 001°53'1319.7
2018-Oct-15 11:52N 49°39' W 002°01'720.4
2018-Oct-15 11:30N 49°32' W 001°60'919.9
2018-Oct-15 11:02N 49°23' W 001°57'19 2.4
2018-Oct-15 03:08N 49°13' W 002°22'213.1
2018-Oct-15 02:59N 49°15' W 002°22'613.0
2018-Oct-15 02:30N 49°21' W 002°19'612.9
2018-Oct-15 02:03N 49°26' W 002°15'112.4
2018-Oct-15 02:01N 49°27' W 002°15'612.5
2018-Oct-15 01:30N 49°32' W 002°11'613.3
2018-Oct-15 01:03N 49°38' W 002°07'115.4
2018-Oct-15 01:00N 49°39' W 002°06'714.7
2018-Oct-15 00:30N 49°45' W 002°01'613.3
2018-Oct-15 00:03N 49°50' W 001°56'113.4
2018-Oct-15 00:00N 49°51' W 001°55'714.0
2018-Oct-14 23:31N 49°56' W 001°49'614.3
2018-Oct-14 23:03N 50°02' W 001°44'114.4
2018-Oct-14 23:00N 50°02' W 001°43'714.5
2018-Oct-14 22:30N 50°08' W 001°37'714.9
2018-Oct-14 22:04N 50°14' W 001°31'114.8
2018-Oct-14 22:00N 50°15' W 001°30'815.2
2018-Oct-14 21:30N 50°21' W 001°24'815.5
2018-Oct-14 21:00N 50°27' W 001°17'815.8
2018-Oct-14 20:30N 50°34' W 001°10'715.1
2018-Oct-14 20:03N 50°40' W 001°04'110.6
2018-Oct-14 20:01N 50°40' W 001°04'510.6
2018-Oct-14 19:31N 50°45' W 001°05'3 7.4
2018-Oct-14 19:03N 50°49' W 001°06'0 1.3
2018-Oct-14 19:00N 50°49' W 001°06'0 0.0
2018-Oct-14 18:30N 50°49' W 001°06'0 0.0
2018-Oct-14 18:03N 50°49' W 001°06'0 0.0
2018-Oct-14 17:58N 50°49' W 001°06'0 0.0
2018-Oct-14 17:28N 50°49' W 001°06'1 1.5
2018-Oct-14 17:04N 50°49' W 001°07'0 8.5
2018-Oct-14 17:00N 50°48' W 001°07'612.6
2018-Oct-14 16:31N 50°42' W 001°03'714.8
2018-Oct-14 16:04N 50°36' W 001°07'115.1
2018-Oct-14 16:01N 50°36' W 001°08'611.5
2018-Oct-14 15:30N 50°31' W 001°12'4 9.3
2018-Oct-14 15:03N 50°27' W 001°16'010.0
2018-Oct-14 15:00N 50°27' W 001°16'1314.1
2018-Oct-14 14:03N 50°15' W 001°25'117.0
2018-Oct-14 14:00N 50°14' W 001°26'917.3
2018-Oct-14 13:31N 50°08' W 001°35'817.9
2018-Oct-14 13:03N 50°01' W 001°42'118.4
2018-Oct-14 13:00N 50°00' W 001°43'918.5
2018-Oct-14 12:30N 49°53' W 001°51'919.8
2018-Oct-14 12:04N 49°45' W 001°59'120.9
2018-Oct-14 12:00N 49°45' W 002°00'918.8
2018-Oct-14 11:30N 49°35' W 001°60'1020.2
2018-Oct-14 11:00N 49°25' W 001°57'21 2.7
2018-Oct-14 03:15N 49°14' W 002°25'317.2
2018-Oct-14 03:03N 49°18' W 002°25'116.6
2018-Oct-14 03:00N 49°19' W 002°25'815.9
2018-Oct-14 02:30N 49°25' W 002°16'716.7
2018-Oct-14 02:03N 49°31' W 002°11'116.8
2018-Oct-14 02:00N 49°32' W 002°11'1416.5
2018-Oct-14 01:08N 49°45' W 002°00'117.2
2018-Oct-14 01:03N 49°46' W 001°59'117.0
2018-Oct-14 01:01N 49°46' W 001°58'815.9
2018-Oct-14 00:31N 49°49' W 001°46'715.9
2018-Oct-14 00:03N 49°52' W 001°36'115.5
2018-Oct-14 00:00N 49°52' W 001°35'815.3
2018-Oct-13 23:30N 49°59' W 001°29'715.5
2018-Oct-13 23:03N 50°06' W 001°30'114.4
2018-Oct-13 23:00N 50°07' W 001°30'713.8
2018-Oct-13 22:31N 50°14' W 001°29'612.6
2018-Oct-13 22:03N 50°19' W 001°25'112.3
2018-Oct-13 22:00N 50°19' W 001°25'712.9
2018-Oct-13 21:30N 50°25' W 001°20'613.1
2018-Oct-13 21:03N 50°30' W 001°15'113.3
2018-Oct-13 21:00N 50°30' W 001°14'713.4
2018-Oct-13 20:31N 50°36' W 001°08'613.4
2018-Oct-13 20:03N 50°41' W 001°02'112.7
2018-Oct-13 20:01N 50°41' W 001°02'611.9
2018-Oct-13 19:30N 50°47' W 001°06'2 4.3
2018-Oct-13 19:02N 50°49' W 001°06'0 0.0
2018-Oct-13 18:59N 50°49' W 001°06'0 0.0
2018-Oct-13 18:29N 50°49' W 001°06'0 0.0
2018-Oct-13 18:02N 50°49' W 001°06'0 0.0
2018-Oct-13 17:59N 50°49' W 001°06'0 0.0
2018-Oct-13 17:29N 50°49' W 001°06'1 2.2
2018-Oct-13 17:03N 50°48' W 001°07'0 8.0
2018-Oct-13 17:00N 50°48' W 001°07'612.2
2018-Oct-13 16:31N 50°42' W 001°03'612.7
2018-Oct-13 16:04N 50°37' W 001°07'113.3
2018-Oct-13 16:01N 50°37' W 001°07'5 9.6
2018-Oct-13 15:31N 50°33' W 001°12'4 9.9
2018-Oct-13 15:03N 50°29' W 001°16'110.6
2018-Oct-13 15:00N 50°28' W 001°16'714.2
2018-Oct-13 14:30N 50°23' W 001°22'815.3
2018-Oct-13 14:00N 50°17' W 001°30'815.9
2018-Oct-13 13:30N 50°10' W 001°35'716.4
2018-Oct-13 13:03N 50°03' W 001°41'117.0
2018-Oct-13 13:01N 50°02' W 001°42'917.5
2018-Oct-13 12:30N 49°55' W 001°49'818.5
2018-Oct-13 12:04N 49°48' W 001°56'119.4
2018-Oct-13 12:00N 49°47' W 001°57'1019.1
2018-Oct-13 11:30N 49°38' W 002°01'1521.3
2018-Oct-13 10:49N 49°24' W 001°57'721.4
2018-Oct-13 10:30N 49°17' W 001°53'919.6
2018-Oct-13 10:03N 49°09' W 001°53'1618.7
2018-Oct-13 09:13N 48°53' W 001°59'720.0
2018-Oct-13 08:51N 48°46' W 002°00'718.1
2018-Oct-13 08:28N 48°39' W 002°03'1 1.8
2018-Oct-13 07:52N 48°38' W 002°02'0 0.0
2018-Oct-13 07:16N 48°38' W 002°02'0 0.0
2018-Oct-13 06:51N 48°38' W 002°02'0 0.1
2018-Oct-13 06:00N 48°38' W 002°02'2115.2
2018-Oct-13 04:39N 48°55' W 002°21'1916.5
2018-Oct-13 03:30N 49°13' W 002°28'817.3
2018-Oct-13 03:03N 49°21' W 002°28'114.9
2018-Oct-13 03:00N 49°21' W 002°27'916.9
2018-Oct-13 02:30N 49°26' W 002°16'716.4
2018-Oct-13 02:03N 49°32' W 002°11'116.6
2018-Oct-13 02:00N 49°33' W 002°11'816.7
2018-Oct-13 01:30N 49°41' W 002°06'920.0
2018-Oct-13 01:04N 49°47' W 001°56'120.0
2018-Oct-13 01:01N 49°47' W 001°54'918.4
2018-Oct-13 00:31N 49°50' W 001°41'715.9
2018-Oct-13 00:04N 49°53' W 001°31'115.1
2018-Oct-13 00:00N 49°54' W 001°30'815.0
2018-Oct-12 23:30N 49°59' W 001°21'714.9
2018-Oct-12 23:04N 50°05' W 001°16'115.6
2018-Oct-12 23:01N 50°05' W 001°16'816.5
2018-Oct-12 22:30N 50°14' W 001°18'716.6
2018-Oct-12 22:03N 50°21' W 001°21'116.7
2018-Oct-12 22:01N 50°22' W 001°21'916.7
2018-Oct-12 21:30N 50°30' W 001°24'510.3
2018-Oct-12 21:03N 50°33' W 001°18'413.8
2018-Oct-12 20:48N 50°33' W 001°13'414.0
2018-Oct-12 20:30N 50°36' W 001°08'613.6
2018-Oct-12 20:03N 50°41' W 001°02'111.5
2018-Oct-12 20:00N 50°41' W 001°02'611.6
2018-Oct-12 19:30N 50°47' W 001°06'2 4.2
2018-Oct-12 19:01N 50°49' W 001°06'0 0.1
2018-Oct-12 18:58N 50°49' W 001°06'0 0.0
2018-Oct-12 18:28N 50°49' W 001°06'0 0.0
2018-Oct-12 18:01N 50°49' W 001°06'0 0.0
2018-Oct-12 17:58N 50°49' W 001°06'0 0.0
2018-Oct-12 17:28N 50°49' W 001°06'1 2.1
2018-Oct-12 17:03N 50°48' W 001°07'0 9.4
2018-Oct-12 17:00N 50°48' W 001°07'612.6
2018-Oct-12 16:31N 50°42' W 001°03'511.8
2018-Oct-12 16:03N 50°37' W 001°07'0 9.9
2018-Oct-12 16:01N 50°37' W 001°07'5 9.1
2018-Oct-12 15:31N 50°33' W 001°11'612.7
2018-Oct-12 15:03N 50°29' W 001°16'113.5
2018-Oct-12 15:00N 50°28' W 001°17'714.0
2018-Oct-12 14:30N 50°22' W 001°23'714.8
2018-Oct-12 14:00N 50°16' W 001°29'815.2
2018-Oct-12 13:30N 50°09' W 001°34'715.3
2018-Oct-12 13:03N 50°03' W 001°40'115.2
2018-Oct-12 13:00N 50°03' W 001°41'917.9
2018-Oct-12 12:30N 49°55' W 001°49'919.1
2018-Oct-12 12:03N 49°48' W 001°57'119.8
2018-Oct-12 12:00N 49°48' W 001°58'918.8
2018-Oct-12 11:30N 49°38' W 002°01'1520.9
2018-Oct-12 10:47N 49°24' W 001°57'3119.0
2018-Oct-12 09:10N 48°53' W 001°59'11 2.8
2018-Oct-12 05:26N 48°44' W 002°09'616.7
2018-Oct-12 05:03N 48°49' W 002°14'117.3
2018-Oct-12 05:00N 48°50' W 002°15'817.0
2018-Oct-12 04:30N 48°57' W 002°22'716.3
2018-Oct-12 04:03N 49°05' W 002°22'116.3
2018-Oct-12 04:00N 49°06' W 002°22'916.6
2018-Oct-12 03:27N 49°15' W 002°23'616.1
2018-Oct-12 03:03N 49°21' W 002°23'115.1
2018-Oct-12 03:00N 49°22' W 002°23'816.8
2018-Oct-12 02:30N 49°28' W 002°14'714.7
2018-Oct-12 02:03N 49°34' W 002°10'112.8
2018-Oct-12 02:00N 49°35' W 002°09'1113.9
2018-Oct-12 01:15N 49°44' W 002°03'317.5
2018-Oct-12 01:03N 49°47' W 002°00'116.0
2018-Oct-12 01:00N 49°48' W 001°60'815.6
2018-Oct-12 00:30N 49°54' W 001°53'714.7
2018-Oct-12 00:04N 49°60' W 001°48'114.0
2018-Oct-12 00:00N 50°00' W 001°47'713.9
2018-Oct-11 23:30N 50°06' W 001°41'613.2
2018-Oct-11 23:04N 50°11' W 001°36'112.6
2018-Oct-11 23:00N 50°12' W 001°36'613.0
2018-Oct-11 22:30N 50°17' W 001°29'613.1
2018-Oct-11 22:03N 50°21' W 001°24'113.2
2018-Oct-11 22:00N 50°22' W 001°23'713.0
2018-Oct-11 21:30N 50°27' W 001°17'612.6
2018-Oct-11 21:03N 50°32' W 001°12'112.7
2018-Oct-11 21:00N 50°33' W 001°12'612.6
2018-Oct-11 20:30N 50°38' W 001°06'511.0
2018-Oct-11 20:03N 50°42' W 001°03'111.8
2018-Oct-11 20:00N 50°43' W 001°03'611.6
2018-Oct-11 19:30N 50°48' W 001°07'1 1.8
2018-Oct-11 19:01N 50°49' W 001°06'0 0.1
2018-Oct-11 18:58N 50°49' W 001°06'0 0.0
2018-Oct-11 18:28N 50°49' W 001°06'0 0.0
2018-Oct-11 18:01N 50°49' W 001°06'0 0.1
2018-Oct-11 17:58N 50°49' W 001°06'0 0.0
2018-Oct-11 17:28N 50°49' W 001°06'0 0.0
2018-Oct-11 17:04N 50°49' W 001°06'0 0.0
2018-Oct-11 17:01N 50°49' W 001°06'3 5.1
2018-Oct-11 16:30N 50°46' W 001°05'613.3
2018-Oct-11 16:03N 50°40' W 001°04'113.9
2018-Oct-11 16:00N 50°40' W 001°04'816.2
2018-Oct-11 15:31N 50°33' W 001°11'817.0
2018-Oct-11 15:03N 50°27' W 001°18'117.3
2018-Oct-11 15:00N 50°26' W 001°19'917.5
2018-Oct-11 14:30N 50°19' W 001°26'917.5
2018-Oct-11 14:00N 50°12' W 001°34'917.7
2018-Oct-11 13:31N 50°04' W 001°42'818.5
2018-Oct-11 13:04N 49°57' W 001°48'118.7
2018-Oct-11 13:01N 49°56' W 001°48'918.8
2018-Oct-11 12:31N 49°48' W 001°57'1017.1
2018-Oct-11 11:57N 49°40' W 002°03'919.8
2018-Oct-11 11:28N 49°30' W 002°04'5210.8
2018-Oct-11 06:40N 48°38' W 002°02'3 3.0
2018-Oct-11 05:47N 48°40' W 002°05'818.2
2018-Oct-11 05:22N 48°46' W 002°11'516.9
2018-Oct-11 05:03N 48°51' W 002°16'114.7
2018-Oct-11 05:00N 48°51' W 002°17'714.1
2018-Oct-11 04:30N 48°57' W 002°22'713.0
2018-Oct-11 03:58N 49°04' W 002°22'813.1
2018-Oct-11 03:20N 49°13' W 002°21'413.0
2018-Oct-11 02:59N 49°17' W 002°21'613.4
2018-Oct-11 02:30N 49°23' W 002°16'613.6
2018-Oct-11 02:03N 49°28' W 002°11'113.6
2018-Oct-11 02:00N 49°29' W 002°11'713.7
2018-Oct-11 01:30N 49°34' W 002°05'715.0
2018-Oct-11 01:03N 49°41' W 002°03'116.7
2018-Oct-11 01:00N 49°42' W 002°03'714.1
2018-Oct-11 00:30N 49°48' W 001°59'613.3
2018-Oct-11 00:04N 49°53' W 001°53'112.5
2018-Oct-11 00:00N 49°54' W 001°53'715.0
2018-Oct-10 23:30N 49°60' W 001°46'715.4
2018-Oct-10 23:04N 50°06' W 001°41'114.9
2018-Oct-10 23:01N 50°06' W 001°40'714.7
2018-Oct-10 22:30N 50°12' W 001°33'614.3
2018-Oct-10 22:04N 50°18' W 001°28'114.0
2018-Oct-10 22:00N 50°18' W 001°27'713.8
2018-Oct-10 21:30N 50°24' W 001°21'613.6
2018-Oct-10 21:03N 50°29' W 001°15'113.4
2018-Oct-10 21:00N 50°30' W 001°15'613.0
2018-Oct-10 20:30N 50°35' W 001°09'612.9
2018-Oct-10 20:03N 50°40' W 001°04'112.6
2018-Oct-10 20:00N 50°40' W 001°04'612.1
2018-Oct-10 19:31N 50°46' W 001°06'2 5.0
2018-Oct-10 19:01N 50°49' W 001°06'0 0.1
2018-Oct-10 18:58N 50°49' W 001°06'0 0.0
2018-Oct-10 18:28N 50°49' W 001°06'0 0.0
2018-Oct-10 18:01N 50°49' W 001°06'0 0.0
2018-Oct-10 17:58N 50°49' W 001°06'0 0.0
2018-Oct-10 17:28N 50°49' W 001°06'0 0.0
2018-Oct-10 17:01N 50°49' W 001°06'0 0.0
2018-Oct-10 16:58N 50°49' W 001°06'0 0.0
2018-Oct-10 16:28N 50°49' W 001°06'0 0.0
2018-Oct-10 16:01N 50°49' W 001°06'0 0.1
2018-Oct-10 15:58N 50°49' W 001°06'0 0.0
2018-Oct-10 15:28N 50°49' W 001°06'0 0.0
2018-Oct-10 15:01N 50°49' W 001°06'0 0.0
2018-Oct-10 14:58N 50°49' W 001°06'0 0.0
2018-Oct-10 14:01N 50°49' W 001°06'0 0.0
2018-Oct-10 13:58N 50°49' W 001°06'0 0.0
2018-Oct-10 13:28N 50°49' W 001°06'0 0.0
2018-Oct-10 13:02N 50°49' W 001°06'  

Dump ship's entire track history